createdAt,value
2017-12-03T00:01:37.287Z,17.43
2017-12-03T00:04:05.558Z,21.30
2017-12-03T00:06:33.842Z,19.70
2017-12-03T00:09:02.131Z,19.63
2017-12-03T00:11:29.689Z,24.60
2017-12-03T00:13:57.238Z,24.23
2017-12-03T00:16:25.522Z,20.17
2017-12-03T00:18:53.022Z,25.33
2017-12-03T00:21:20.539Z,21.97
2017-12-03T00:23:48.048Z,23.50
2017-12-03T00:26:15.590Z,23.10
2017-12-03T00:28:43.098Z,22.60
2017-12-03T00:31:11.370Z,23.60
2017-12-03T00:33:39.655Z,22.33
2017-12-03T00:36:07.932Z,22.70
2017-12-03T00:38:35.455Z,24.93
2017-12-03T00:41:02.958Z,27.47
2017-12-03T00:43:30.518Z,24.40
2017-12-03T00:45:58.023Z,26.97
2017-12-03T00:48:25.540Z,22.27
2017-12-03T00:50:53.098Z,24.80
2017-12-03T00:53:20.623Z,23.77
2017-12-03T00:55:48.896Z,29.20
2017-12-03T00:58:17.188Z,26.10
2017-12-03T01:00:45.495Z,23.07
2017-12-03T01:03:13.019Z,26.43
2017-12-03T01:05:41.291Z,30.23
2017-12-03T01:08:09.567Z,25.70
2017-12-03T01:10:37.851Z,22.47
2017-12-03T01:13:06.126Z,29.37
2017-12-03T01:15:34.438Z,30.13
2017-12-03T01:18:01.930Z,24.37
2017-12-03T01:20:29.483Z,27.00
2017-12-03T01:22:56.983Z,27.50
2017-12-03T01:25:24.499Z,28.13
2017-12-03T01:27:52.003Z,26.67
2017-12-03T01:30:19.526Z,27.10
2017-12-03T01:32:47.124Z,32.83
2017-12-03T01:35:14.661Z,22.70
2017-12-03T01:37:42.930Z,28.43
2017-12-03T01:40:11.225Z,26.97
2017-12-03T01:42:39.492Z,28.27
2017-12-03T01:45:07.782Z,23.67
2017-12-03T01:47:35.305Z,25.17
2017-12-03T01:50:02.914Z,25.60
2017-12-03T01:52:30.467Z,24.60
2017-12-03T01:54:57.977Z,21.70
2017-12-03T01:57:25.504Z,22.57
2017-12-03T01:59:53.003Z,24.40
2017-12-03T02:02:20.531Z,28.80
2017-12-03T02:04:48.035Z,27.03
2017-12-03T02:07:16.319Z,20.40
2017-12-03T02:09:44.602Z,25.80
2017-12-03T02:12:12.124Z,22.23
2017-12-03T02:14:40.395Z,26.03
2017-12-03T02:17:07.938Z,23.63
2017-12-03T02:19:35.443Z,24.63
2017-12-03T02:22:03.714Z,24.90
2017-12-03T02:24:31.997Z,23.03
2017-12-03T02:27:00.266Z,25.07
2017-12-03T02:29:28.554Z,23.60
2017-12-03T02:31:56.118Z,23.10
2017-12-03T02:34:23.646Z,23.30
2017-12-03T02:36:51.152Z,20.00
2017-12-03T02:39:18.686Z,21.47
2017-12-03T02:41:46.959Z,22.80
2017-12-03T02:44:14.540Z,21.40
2017-12-03T02:46:42.043Z,22.20
2017-12-03T02:49:09.594Z,23.70
2017-12-03T02:51:37.095Z,23.43
2017-12-03T02:54:05.373Z,21.70
2017-12-03T02:56:32.898Z,23.97
2017-12-03T02:59:00.406Z,23.73
2017-12-03T03:01:27.958Z,26.80
2017-12-03T03:03:55.515Z,23.00
2017-12-03T03:06:23.034Z,24.97
2017-12-03T03:08:50.543Z,27.23
2017-12-03T03:11:18.091Z,25.60
2017-12-03T03:13:45.594Z,27.40
2017-12-03T03:16:13.122Z,31.07
2017-12-03T03:18:40.631Z,22.13
2017-12-03T03:21:08.467Z,29.50
2017-12-03T03:23:36.091Z,24.13
2017-12-03T03:26:03.590Z,32.83
2017-12-03T03:28:31.103Z,26.97
2017-12-03T03:30:58.607Z,32.10
2017-12-03T03:33:26.223Z,34.80
2017-12-03T03:38:27.687Z,31.77
2017-12-03T03:40:55.190Z,29.60
2017-12-03T03:43:22.707Z,34.20
2017-12-03T03:45:50.274Z,31.27
2017-12-03T03:48:17.799Z,29.87
2017-12-03T03:50:46.066Z,35.53
2017-12-03T03:53:13.659Z,30.93
2017-12-03T03:55:41.166Z,27.77
2017-12-03T03:58:08.690Z,38.93
2017-12-03T04:00:36.231Z,35.40
2017-12-03T04:03:03.735Z,37.57
2017-12-03T04:05:31.258Z,31.20
2017-12-03T04:07:58.771Z,27.93
2017-12-03T04:10:26.286Z,38.60
2017-12-03T04:12:53.823Z,28.90
2017-12-03T04:15:21.346Z,34.50
2017-12-03T04:17:48.869Z,41.30
2017-12-03T04:20:16.504Z,34.97
2017-12-03T04:22:44.011Z,34.23
2017-12-03T04:25:11.627Z,35.00
2017-12-03T04:27:39.130Z,37.90
2017-12-03T04:30:06.650Z,36.00
2017-12-03T04:32:34.156Z,36.23
2017-12-03T04:35:01.679Z,39.80
2017-12-03T04:37:29.192Z,36.27
2017-12-03T04:39:57.489Z,35.10
2017-12-03T04:42:24.993Z,39.77
2017-12-03T04:44:52.499Z,33.07
2017-12-03T04:47:20.018Z,33.33
2017-12-03T04:49:47.524Z,38.53
2017-12-03T04:52:15.101Z,40.73
2017-12-03T04:54:42.601Z,41.73
2017-12-03T04:57:10.119Z,43.57
2017-12-03T04:59:37.622Z,39.50
2017-12-03T05:02:05.907Z,36.67
2017-12-03T05:04:34.185Z,34.20
2017-12-03T05:07:02.474Z,36.20
2017-12-03T05:09:29.975Z,40.10
2017-12-03T05:11:57.498Z,40.93
2017-12-03T05:14:25.010Z,39.53
2017-12-03T05:16:52.531Z,43.93
2017-12-03T05:19:20.039Z,45.47
2017-12-03T05:21:48.343Z,36.73
2017-12-03T05:24:15.952Z,38.80
2017-12-03T05:26:43.443Z,32.80
2017-12-03T05:29:11.716Z,40.30
2017-12-03T05:31:40.021Z,35.60
2017-12-03T05:34:07.531Z,37.10
2017-12-03T05:36:35.130Z,43.90
2017-12-03T05:39:02.652Z,39.87
2017-12-03T05:41:30.246Z,35.43
2017-12-03T05:43:57.771Z,35.97
2017-12-03T05:46:25.370Z,38.90
2017-12-03T05:48:52.890Z,33.17
2017-12-03T05:51:20.386Z,41.77
2017-12-03T05:53:47.944Z,41.23
2017-12-03T05:56:15.503Z,33.53
2017-12-03T05:58:43.014Z,39.97
2017-12-03T06:01:10.525Z,40.17
2017-12-03T06:03:38.078Z,41.47
2017-12-03T06:06:05.587Z,39.83
2017-12-03T06:08:33.107Z,35.50
2017-12-03T06:11:00.655Z,38.23
2017-12-03T06:13:28.175Z,35.00
2017-12-03T06:15:55.676Z,32.33
2017-12-03T06:18:23.200Z,33.80
2017-12-03T06:20:51.466Z,32.37
2017-12-03T06:23:19.014Z,27.70
2017-12-03T06:25:46.518Z,26.30
2017-12-03T06:28:14.031Z,30.47
2017-12-03T06:30:41.555Z,30.03
2017-12-03T06:33:09.095Z,33.23
2017-12-03T06:35:36.651Z,30.37
2017-12-03T06:38:04.158Z,26.43
2017-12-03T06:40:31.670Z,30.53
2017-12-03T06:42:59.230Z,28.77
2017-12-03T06:45:26.791Z,32.80
2017-12-03T06:47:54.346Z,33.40
2017-12-03T06:50:21.864Z,32.43
2017-12-03T06:52:49.367Z,30.37
2017-12-03T06:55:16.886Z,24.97
2017-12-03T06:57:44.389Z,28.00
2017-12-03T07:00:11.964Z,32.07
2017-12-03T07:02:39.476Z,32.67
2017-12-03T07:05:07.874Z,30.50
2017-12-03T07:07:35.380Z,33.03
2017-12-03T07:10:02.991Z,33.10
2017-12-03T07:12:30.562Z,35.00
2017-12-03T07:14:58.093Z,33.07
2017-12-03T07:17:26.386Z,28.53
2017-12-03T07:19:53.890Z,30.40
2017-12-03T07:22:21.431Z,31.03
2017-12-03T07:24:48.930Z,36.23
2017-12-03T07:27:16.518Z,38.93
2017-12-03T07:29:44.031Z,42.00
2017-12-03T07:32:11.564Z,46.43
2017-12-03T07:34:39.072Z,44.57
2017-12-03T07:37:07.384Z,40.87
2017-12-03T07:39:34.886Z,39.80
2017-12-03T07:42:02.408Z,36.07
2017-12-03T07:44:29.915Z,40.47
2017-12-03T07:46:57.433Z,39.63
2017-12-03T07:49:24.935Z,45.40
2017-12-03T07:51:53.222Z,46.20
2017-12-03T07:54:21.498Z,44.63
2017-12-03T07:56:49.791Z,50.13
2017-12-03T07:59:17.294Z,42.90
2017-12-03T08:01:44.831Z,41.07
2017-12-03T08:04:12.373Z,39.73
2017-12-03T08:06:39.878Z,49.27
2017-12-03T08:09:07.394Z,42.20
2017-12-03T08:11:34.938Z,39.30
2017-12-03T08:14:02.459Z,47.27
2017-12-03T08:16:30.054Z,40.80
2017-12-03T08:18:57.580Z,40.70
2017-12-03T08:21:25.086Z,42.60
2017-12-03T08:23:52.665Z,46.77
2017-12-03T08:26:20.139Z,41.87
2017-12-03T08:28:47.658Z,37.97
2017-12-03T08:31:15.163Z,43.93
2017-12-03T08:33:42.687Z,47.00
2017-12-03T08:36:10.200Z,42.70
2017-12-03T08:38:38.487Z,45.20
2017-12-03T08:41:06.759Z,41.93
2017-12-03T08:43:35.046Z,45.07
2017-12-03T08:46:02.551Z,41.80
2017-12-03T08:48:30.077Z,38.97
2017-12-03T08:50:57.578Z,31.30
2017-12-03T08:53:25.105Z,34.73
2017-12-03T08:55:52.607Z,39.77
2017-12-03T08:58:20.126Z,38.70
2017-12-03T09:00:47.650Z,37.93
2017-12-03T09:03:15.155Z,31.17
2017-12-03T09:05:42.672Z,32.53
2017-12-03T09:08:10.180Z,33.93
2017-12-03T09:10:37.698Z,38.70
2017-12-03T09:13:05.203Z,31.90
2017-12-03T09:15:32.731Z,41.20
2017-12-03T09:18:00.244Z,37.53
2017-12-03T09:20:28.531Z,35.90
2017-12-03T09:22:56.040Z,37.73
2017-12-03T09:25:23.558Z,40.40
2017-12-03T09:27:51.068Z,37.97
2017-12-03T09:30:18.590Z,39.37
2017-12-03T09:32:46.097Z,37.20
2017-12-03T09:35:14.390Z,33.50
2017-12-03T09:37:42.663Z,37.70
2017-12-03T09:40:10.949Z,37.33
2017-12-03T09:42:39.214Z,37.23
2017-12-03T09:45:07.499Z,34.17
2017-12-03T09:47:35.013Z,37.67
2017-12-03T09:50:02.540Z,43.80
2017-12-03T09:52:30.084Z,41.47
2017-12-03T09:54:57.598Z,38.80
2017-12-03T09:57:25.129Z,48.47
2017-12-03T09:59:52.634Z,42.20
2017-12-03T10:02:20.925Z,42.60
2017-12-03T10:04:49.194Z,38.30
2017-12-03T10:07:17.487Z,42.10
2017-12-03T10:09:44.991Z,38.80
2017-12-03T10:12:12.519Z,41.70
2017-12-03T10:14:40.028Z,43.57
2017-12-03T10:17:07.554Z,51.20
2017-12-03T10:19:35.058Z,45.67
2017-12-03T10:22:03.346Z,50.60
2017-12-03T10:24:30.846Z,46.67
2017-12-03T10:26:58.366Z,43.63
2017-12-03T10:29:25.880Z,36.90
2017-12-03T10:31:53.402Z,43.40
2017-12-03T10:34:20.910Z,40.23
2017-12-03T10:36:48.427Z,33.10
2017-12-03T10:39:15.936Z,43.43
2017-12-03T10:41:44.227Z,37.77
2017-12-03T10:44:12.495Z,36.77
2017-12-03T10:46:40.790Z,36.30
2017-12-03T10:49:08.294Z,36.00
2017-12-03T10:51:35.811Z,37.97
2017-12-03T10:54:03.318Z,39.50
2017-12-03T10:56:30.866Z,39.80
2017-12-03T10:58:58.363Z,37.27
2017-12-03T11:01:26.635Z,38.77
2017-12-03T11:03:54.924Z,35.50
2017-12-03T11:06:22.438Z,40.33
2017-12-03T11:08:49.999Z,34.43
2017-12-03T11:11:17.510Z,37.97
2017-12-03T11:13:45.028Z,34.53
2017-12-03T11:16:13.308Z,36.53
2017-12-03T11:18:40.826Z,33.97
2017-12-03T11:21:08.599Z,33.67
2017-12-03T11:23:36.114Z,33.03
2017-12-03T11:26:03.618Z,33.97
2017-12-03T11:28:31.141Z,38.30
2017-12-03T11:30:58.643Z,34.60
2017-12-03T11:33:26.163Z,38.27
2017-12-03T11:35:53.667Z,40.40
2017-12-03T11:38:21.191Z,39.90
2017-12-03T11:40:48.699Z,34.67
2017-12-03T11:43:16.991Z,40.27
2017-12-03T11:45:45.258Z,38.97
2017-12-03T11:48:13.555Z,34.37
2017-12-03T11:50:41.066Z,37.33
2017-12-03T11:53:08.603Z,36.13
2017-12-03T11:55:36.351Z,44.20
2017-12-03T11:58:03.858Z,33.30
2017-12-03T12:00:31.374Z,40.33
2017-12-03T12:02:59.706Z,36.60
2017-12-03T12:05:27.994Z,32.73
2017-12-03T12:07:55.498Z,33.77
2017-12-03T12:10:23.789Z,30.97
2017-12-03T12:12:51.296Z,33.67
2017-12-03T12:15:18.823Z,32.93
2017-12-03T12:17:46.327Z,33.80
2017-12-03T12:20:13.851Z,30.93
2017-12-03T12:22:42.120Z,32.43
2017-12-03T12:25:10.411Z,30.83
2017-12-03T12:27:37.918Z,27.07
2017-12-03T12:30:05.448Z,27.03
2017-12-03T12:32:32.963Z,27.70
2017-12-03T12:35:00.486Z,32.40
2017-12-03T12:37:28.765Z,34.10
2017-12-03T12:39:56.287Z,28.83
2017-12-03T12:42:23.800Z,33.10
2017-12-03T12:44:51.322Z,30.83
2017-12-03T12:47:18.827Z,27.80
2017-12-03T12:49:46.348Z,33.60
2017-12-03T12:52:13.855Z,32.57
2017-12-03T12:54:42.146Z,36.90
2017-12-03T12:57:10.411Z,32.23
2017-12-03T12:59:38.683Z,34.73
2017-12-03T13:02:06.967Z,31.97
2017-12-03T13:04:35.235Z,33.70
2017-12-03T13:07:03.530Z,30.10
2017-12-03T13:09:31.034Z,30.40
2017-12-03T13:11:58.562Z,32.87
2017-12-03T13:14:26.071Z,28.73
2017-12-03T13:16:53.592Z,51.43
2017-12-03T13:19:21.094Z,40.53
2017-12-03T13:21:49.379Z,32.93
2017-12-03T13:24:17.643Z,28.50
2017-12-03T13:26:45.163Z,29.80
2017-12-03T13:29:12.666Z,54.60
2017-12-03T13:31:40.954Z,35.70
2017-12-03T13:34:09.231Z,27.63
2017-12-03T13:36:37.520Z,34.80
2017-12-03T13:39:05.026Z,38.07
2017-12-03T13:41:32.547Z,45.57
2017-12-03T13:44:00.057Z,30.07
2017-12-03T13:46:27.581Z,30.43
2017-12-03T13:48:55.093Z,29.93
2017-12-03T13:51:23.378Z,30.60
2017-12-03T13:53:50.892Z,33.30
2017-12-03T13:56:18.434Z,32.37
2017-12-03T13:58:45.946Z,29.00
2017-12-03T14:01:14.211Z,29.70
2017-12-03T14:03:42.499Z,29.23
2017-12-03T14:06:10.771Z,24.73
2017-12-03T14:08:39.060Z,29.67
2017-12-03T14:11:06.563Z,30.00
2017-12-03T14:13:34.855Z,27.67
2017-12-03T14:16:02.359Z,24.77
2017-12-03T14:18:29.880Z,29.13
2017-12-03T14:20:57.386Z,27.53
2017-12-03T14:23:24.906Z,32.83
2017-12-03T14:25:53.175Z,24.60
2017-12-03T14:28:21.463Z,27.17
2017-12-03T14:30:49.735Z,27.30
2017-12-03T14:33:18.023Z,45.27
2017-12-03T14:35:46.288Z,26.50
2017-12-03T14:38:14.574Z,31.23
2017-12-03T14:40:42.843Z,28.13
2017-12-03T14:43:11.138Z,45.90
2017-12-03T14:45:38.652Z,28.13
2017-12-03T14:48:06.174Z,30.60
2017-12-03T14:50:33.679Z,26.27
2017-12-03T14:53:01.208Z,25.50
2017-12-03T14:55:28.714Z,31.83
2017-12-03T14:57:57.006Z,32.10
2017-12-03T15:00:24.511Z,39.70
2017-12-03T15:02:52.019Z,23.37
2017-12-03T15:05:19.539Z,26.67
2017-12-03T15:07:47.043Z,25.53
2017-12-03T15:10:14.566Z,22.90
2017-12-03T15:12:42.835Z,28.03
2017-12-03T15:15:10.351Z,23.37
2017-12-03T15:17:37.871Z,23.93
2017-12-03T15:20:06.154Z,20.33
2017-12-03T15:22:33.658Z,23.03
2017-12-03T15:25:01.178Z,27.73
2017-12-03T15:27:28.678Z,27.57
2017-12-03T15:29:56.190Z,24.90
2017-12-03T15:32:23.686Z,25.17
2017-12-03T15:34:51.206Z,24.73
2017-12-03T15:37:18.711Z,25.83
2017-12-03T15:39:46.234Z,26.27
2017-12-03T15:42:13.740Z,21.90
2017-12-03T15:44:41.263Z,24.77
2017-12-03T15:47:08.796Z,22.73
2017-12-03T15:49:36.319Z,21.67
2017-12-03T15:52:03.823Z,22.80
2017-12-03T15:54:31.347Z,22.53
2017-12-03T15:56:59.614Z,25.13
2017-12-03T15:59:27.146Z,21.27
2017-12-03T16:01:54.647Z,25.90
2017-12-03T16:04:22.922Z,25.70
2017-12-03T16:06:51.211Z,21.33
2017-12-03T16:09:18.719Z,24.93
2017-12-03T16:11:46.243Z,20.00
2017-12-03T16:14:13.746Z,28.23
2017-12-03T16:16:41.723Z,24.33
2017-12-03T16:19:09.228Z,21.63
2017-12-03T16:21:36.751Z,23.20
2017-12-03T16:24:05.023Z,28.90
2017-12-03T16:26:33.310Z,22.50
2017-12-03T16:29:01.583Z,27.80
2017-12-03T16:31:29.875Z,24.13
2017-12-03T16:33:57.383Z,22.50
2017-12-03T16:36:25.140Z,20.37
2017-12-03T16:38:52.660Z,26.03
2017-12-03T16:41:20.189Z,22.67
2017-12-03T16:43:48.466Z,26.07
2017-12-03T16:46:15.986Z,22.37
2017-12-03T16:48:43.491Z,28.60
2017-12-03T16:51:11.779Z,22.77
2017-12-03T16:53:39.286Z,23.10
2017-12-03T16:56:06.802Z,27.23
2017-12-03T16:58:34.307Z,23.77
2017-12-03T17:01:01.835Z,31.07
2017-12-03T17:03:29.333Z,27.73
2017-12-03T17:05:56.845Z,22.83
2017-12-03T17:08:24.364Z,28.00
2017-12-03T17:10:51.867Z,24.43
2017-12-03T17:13:19.385Z,25.73
2017-12-03T17:15:47.668Z,30.30
2017-12-03T17:18:15.963Z,47.73
2017-12-03T17:20:43.471Z,29.63
2017-12-03T17:23:10.996Z,30.63
2017-12-03T17:25:38.511Z,24.87
2017-12-03T17:28:06.794Z,34.67
2017-12-03T17:30:35.075Z,33.63
2017-12-03T17:33:02.619Z,30.73
2017-12-03T17:35:30.894Z,32.97
2017-12-03T17:37:59.187Z,32.57
2017-12-03T17:40:27.463Z,36.60
2017-12-03T17:42:55.757Z,27.40
2017-12-03T17:45:23.264Z,29.40
2017-12-03T17:47:50.786Z,37.37
2017-12-03T17:50:18.294Z,35.37
2017-12-03T17:52:45.814Z,36.77
2017-12-03T17:55:13.318Z,35.83
2017-12-03T17:57:41.630Z,39.00
2017-12-03T18:00:09.130Z,40.13
2017-12-03T18:02:36.634Z,37.90
2017-12-03T18:05:04.163Z,54.17
2017-12-03T18:07:32.430Z,53.63
2017-12-03T18:09:59.947Z,43.97
2017-12-03T18:12:27.446Z,38.97
2017-12-03T18:14:54.968Z,42.80
2017-12-03T18:17:22.487Z,39.57
2017-12-03T18:19:50.010Z,40.40
2017-12-03T18:22:17.510Z,42.47
2017-12-03T18:24:45.076Z,38.10
2017-12-03T18:27:12.630Z,39.13
2017-12-03T18:29:40.151Z,36.77
2017-12-03T18:32:09.166Z,43.63
2017-12-03T18:34:37.568Z,36.37
2017-12-03T18:37:05.076Z,44.83
2017-12-03T18:39:32.645Z,42.83
2017-12-03T18:42:00.147Z,50.67
2017-12-03T18:44:27.663Z,46.87
2017-12-03T18:46:55.165Z,46.47
2017-12-03T18:49:22.685Z,39.23
2017-12-03T18:51:50.955Z,43.43
2017-12-03T18:54:18.474Z,42.87
2017-12-03T18:56:45.982Z,44.17
2017-12-03T18:59:14.287Z,44.87
2017-12-03T19:01:41.791Z,48.37
2017-12-03T19:04:09.295Z,52.40
2017-12-03T19:06:36.819Z,47.67
2017-12-03T19:09:04.322Z,55.60
2017-12-03T19:11:31.871Z,54.13
2017-12-03T19:13:59.379Z,42.20
2017-12-03T19:16:26.898Z,42.57
2017-12-03T19:18:54.399Z,64.90
2017-12-03T19:21:21.924Z,52.33
2017-12-03T19:23:49.428Z,54.43
2017-12-03T19:26:16.953Z,66.73
2017-12-03T19:28:44.460Z,55.00
2017-12-03T19:31:12.763Z,51.30
2017-12-03T19:33:40.278Z,49.53
2017-12-03T19:36:08.571Z,49.00
2017-12-03T19:38:36.843Z,63.77
2017-12-03T19:41:05.173Z,121.90
2017-12-03T19:43:32.683Z,209.30
2017-12-03T19:46:00.976Z,161.47
2017-12-03T19:48:28.487Z,95.10
2017-12-03T19:50:56.008Z,93.30
2017-12-03T19:53:23.511Z,88.00
2017-12-03T19:55:51.034Z,78.77
2017-12-03T19:58:18.584Z,126.13
2017-12-03T20:00:46.132Z,74.00
2017-12-03T20:03:13.705Z,59.27
2017-12-03T20:05:41.211Z,59.60
2017-12-03T20:08:08.732Z,56.30
2017-12-03T20:10:36.239Z,51.60
2017-12-03T20:13:04.527Z,48.63
2017-12-03T20:15:32.027Z,51.30
2017-12-03T20:17:59.653Z,60.13
2017-12-03T20:20:27.154Z,55.10
2017-12-03T20:22:54.677Z,51.30
2017-12-03T20:25:22.182Z,61.87
2017-12-03T20:27:49.703Z,50.70
2017-12-03T20:30:17.205Z,51.77
2017-12-03T20:32:44.733Z,60.23
2017-12-03T20:35:13.011Z,53.17
2017-12-03T20:37:40.533Z,55.00
2017-12-03T20:40:08.043Z,52.23
2017-12-03T20:42:35.626Z,47.50
2017-12-03T20:45:03.989Z,59.63
2017-12-03T20:47:31.616Z,55.17
2017-12-03T20:49:59.142Z,59.77
2017-12-03T20:52:26.714Z,59.00
2017-12-03T20:54:54.372Z,53.77
2017-12-03T20:57:21.911Z,64.23
2017-12-03T20:59:50.217Z,57.60
2017-12-03T21:02:17.775Z,46.30
2017-12-03T21:04:45.351Z,48.97
2017-12-03T21:07:12.855Z,59.17
2017-12-03T21:09:41.142Z,49.23
2017-12-03T21:12:09.406Z,78.47
2017-12-03T21:14:37.690Z,45.80
2017-12-03T21:17:05.963Z,52.67
2017-12-03T21:19:34.271Z,44.03
2017-12-03T21:22:01.772Z,57.10
2017-12-03T21:24:29.291Z,44.17
2017-12-03T21:26:56.802Z,39.07
2017-12-03T21:29:25.093Z,41.73
2017-12-03T21:31:53.375Z,42.27
2017-12-03T21:34:20.899Z,38.63
2017-12-03T21:36:48.412Z,37.43
2017-12-03T21:39:15.935Z,37.57
2017-12-03T21:41:44.211Z,35.60
2017-12-03T21:44:12.498Z,35.63
2017-12-03T21:46:40.762Z,33.83
2017-12-03T21:49:09.052Z,34.97
2017-12-03T21:51:37.322Z,30.87
2017-12-03T21:54:05.607Z,32.13
2017-12-03T21:56:33.874Z,26.73
2017-12-03T21:59:02.163Z,28.27
2017-12-03T22:01:29.671Z,24.40
2017-12-03T22:03:57.206Z,30.40
2017-12-03T22:06:24.710Z,29.70
2017-12-03T22:08:52.212Z,25.40
2017-12-03T22:11:19.737Z,25.67
2017-12-03T22:13:48.015Z,26.53
2017-12-03T22:16:16.303Z,24.03
2017-12-03T22:18:44.570Z,22.70
2017-12-03T22:21:12.855Z,30.90
2017-12-03T22:23:41.127Z,32.90
2017-12-03T22:26:09.407Z,30.10
2017-12-03T22:28:37.675Z,24.23
2017-12-03T22:31:05.959Z,23.83
2017-12-03T22:33:33.463Z,26.53
2017-12-03T22:36:00.979Z,21.30
2017-12-03T22:38:28.474Z,21.53
2017-12-03T22:40:55.999Z,27.90
2017-12-03T22:43:23.503Z,23.13
2017-12-03T22:45:51.018Z,22.10
2017-12-03T22:48:18.522Z,22.03
2017-12-03T22:50:46.043Z,20.97
2017-12-03T22:53:13.542Z,23.60
2017-12-03T22:55:41.058Z,21.03
2017-12-03T22:58:08.563Z,25.67
2017-12-03T23:00:36.082Z,24.70
2017-12-03T23:03:03.588Z,20.70
2017-12-03T23:05:31.091Z,28.67
2017-12-03T23:07:58.611Z,25.83
2017-12-03T23:10:26.886Z,24.57
2017-12-03T23:12:54.402Z,26.53
2017-12-03T23:15:21.898Z,23.17
2017-12-03T23:17:49.422Z,21.20
2017-12-03T23:20:16.930Z,25.90
2017-12-03T23:22:45.219Z,21.70
2017-12-03T23:25:12.711Z,21.93
2017-12-03T23:27:40.231Z,27.10
2017-12-03T23:30:07.738Z,23.50
2017-12-03T23:32:35.255Z,21.73
2017-12-03T23:35:02.757Z,19.57
2017-12-03T23:37:30.276Z,24.20
2017-12-03T23:39:57.783Z,24.07
2017-12-03T23:42:25.303Z,19.27
2017-12-03T23:44:52.793Z,24.70
2017-12-03T23:47:20.315Z,20.27
2017-12-03T23:49:47.810Z,23.20
2017-12-03T23:52:15.332Z,29.17
2017-12-03T23:54:42.842Z,23.23
2017-12-03T23:57:11.135Z,19.80
2017-12-03T23:59:39.399Z,21.20
